sensor_id;sensor_type;location;lat;lon;timestamp;P1;durP1;ratioP1;P2;durP2;ratioP2
80557;SDS011;69901;43.524;-5.636;2023-09-19T00:00:41;7.68;;;1.20;;
80557;SDS011;69901;43.524;-5.636;2023-09-19T00:03:08;5.68;;;1.27;;
80557;SDS011;69901;43.524;-5.636;2023-09-19T00:05:34;6.83;;;1.20;;
80557;SDS011;69901;43.524;-5.636;2023-09-19T00:08:01;4.85;;;1.08;;
80557;SDS011;69901;43.524;-5.636;2023-09-19T00:10:30;6.00;;;1.00;;
80557;SDS011;69901;43.524;-5.636;2023-09-19T00:12:59;5.95;;;1.25;;
80557;SDS011;69901;43.524;-5.636;2023-09-19T00:15:26;4.30;;;1.40;;
80557;SDS011;69901;43.524;-5.636;2023-09-19T00:17:56;5.60;;;0.88;;
80557;SDS011;69901;43.524;-5.636;2023-09-19T00:20:22;7.88;;;1.33;;
80557;SDS011;69901;43.524;-5.636;2023-09-19T00:22:49;7.63;;;1.75;;
80557;SDS011;69901;43.524;-5.636;2023-09-19T00:25:18;7.80;;;1.23;;
80557;SDS011;69901;43.524;-5.636;2023-09-19T00:27:45;6.87;;;1.50;;
80557;SDS011;69901;43.524;-5.636;2023-09-19T00:30:14;6.63;;;1.40;;
80557;SDS011;69901;43.524;-5.636;2023-09-19T00:32:47;6.43;;;1.25;;
80557;SDS011;69901;43.524;-5.636;2023-09-19T00:35:13;8.77;;;1.10;;
80557;SDS011;69901;43.524;-5.636;2023-09-19T00:37:42;7.55;;;1.33;;
80557;SDS011;69901;43.524;-5.636;2023-09-19T00:40:08;5.73;;;0.77;;
80557;SDS011;69901;43.524;-5.636;2023-09-19T00:42:37;6.35;;;1.08;;
80557;SDS011;69901;43.524;-5.636;2023-09-19T00:45:03;6.20;;;1.27;;
80557;SDS011;69901;43.524;-5.636;2023-09-19T00:47:30;8.68;;;1.10;;
80557;SDS011;69901;43.524;-5.636;2023-09-19T00:49:56;9.07;;;1.20;;
80557;SDS011;69901;43.524;-5.636;2023-09-19T00:52:22;6.10;;;1.17;;
80557;SDS011;69901;43.524;-5.636;2023-09-19T00:54:48;8.63;;;0.80;;
80557;SDS011;69901;43.524;-5.636;2023-09-19T00:57:15;6.43;;;1.20;;
80557;SDS011;69901;43.524;-5.636;2023-09-19T00:59:44;7.43;;;1.50;;
80557;SDS011;69901;43.524;-5.636;2023-09-19T01:02:13;6.10;;;1.58;;
80557;SDS011;69901;43.524;-5.636;2023-09-19T01:04:40;5.90;;;1.17;;
80557;SDS011;69901;43.524;-5.636;2023-09-19T01:07:06;5.72;;;1.35;;
80557;SDS011;69901;43.524;-5.636;2023-09-19T01:09:33;4.60;;;0.93;;
80557;SDS011;69901;43.524;-5.636;2023-09-19T01:12:01;5.80;;;1.23;;
80557;SDS011;69901;43.524;-5.636;2023-09-19T01:14:44;7.68;;;1.50;;
80557;SDS011;69901;43.524;-5.636;2023-09-19T01:17:24;5.60;;;1.35;;
80557;SDS011;69901;43.524;-5.636;2023-09-19T01:30:33;6.60;;;1.02;;
80557;SDS011;69901;43.524;-5.636;2023-09-19T01:33:01;7.22;;;1.20;;
80557;SDS011;69901;43.524;-5.636;2023-09-19T01:35:29;5.75;;;1.13;;
80557;SDS011;69901;43.524;-5.636;2023-09-19T01:37:54;6.30;;;1.40;;
80557;SDS011;69901;43.524;-5.636;2023-09-19T01:40:19;7.50;;;1.00;;
80557;SDS011;69901;43.524;-5.636;2023-09-19T01:48:29;7.20;;;1.77;;
80557;SDS011;69901;43.524;-5.636;2023-09-19T01:51:00;6.63;;;1.20;;
80557;SDS011;69901;43.524;-5.636;2023-09-19T01:57:06;7.65;;;1.60;;
80557;SDS011;69901;43.524;-5.636;2023-09-19T01:59:16;5.22;;;0.93;;
80557;SDS011;69901;43.524;-5.636;2023-09-19T02:01:49;6.53;;;1.52;;
80557;SDS011;69901;43.524;-5.636;2023-09-19T02:04:17;5.80;;;0.80;;
80557;SDS011;69901;43.524;-5.636;2023-09-19T02:06:42;6.57;;;0.77;;
80557;SDS011;69901;43.524;-5.636;2023-09-19T02:09:08;5.60;;;1.40;;
80557;SDS011;69901;43.524;-5.636;2023-09-19T02:11:34;7.03;;;1.38;;
80557;SDS011;69901;43.524;-5.636;2023-09-19T02:14:00;6.07;;;1.15;;
80557;SDS011;69901;43.524;-5.636;2023-09-19T02:16:26;8.57;;;1.20;;
80557;SDS011;69901;43.524;-5.636;2023-09-19T02:18:51;6.70;;;1.23;;
80557;SDS011;69901;43.524;-5.636;2023-09-19T02:21:17;5.70;;;0.90;;
80557;SDS011;69901;43.524;-5.636;2023-09-19T02:23:44;7.22;;;1.45;;
80557;SDS011;69901;43.524;-5.636;2023-09-19T02:26:12;6.43;;;1.33;;
80557;SDS011;69901;43.524;-5.636;2023-09-19T02:28:38;8.32;;;1.38;;
80557;SDS011;69901;43.524;-5.636;2023-09-19T02:31:04;8.23;;;1.45;;
80557;SDS011;69901;43.524;-5.636;2023-09-19T02:33:32;6.10;;;1.25;;
80557;SDS011;69901;43.524;-5.636;2023-09-19T02:35:58;5.70;;;1.40;;
80557;SDS011;69901;43.524;-5.636;2023-09-19T02:38:27;5.30;;;1.38;;
80557;SDS011;69901;43.524;-5.636;2023-09-19T02:40:52;4.00;;;1.00;;
80557;SDS011;69901;43.524;-5.636;2023-09-19T02:43:20;6.95;;;1.42;;
80557;SDS011;69901;43.524;-5.636;2023-09-19T02:45:46;6.88;;;1.58;;
80557;SDS011;69901;43.524;-5.636;2023-09-19T02:48:12;6.77;;;1.57;;
80557;SDS011;69901;43.524;-5.636;2023-09-19T02:50:37;4.70;;;1.17;;
80557;SDS011;69901;43.524;-5.636;2023-09-19T02:53:04;5.65;;;1.15;;
80557;SDS011;69901;43.524;-5.636;2023-09-19T02:55:29;8.00;;;1.40;;
80557;SDS011;69901;43.524;-5.636;2023-09-19T02:57:55;7.93;;;1.30;;
80557;SDS011;69901;43.524;-5.636;2023-09-19T03:00:21;8.13;;;1.30;;
80557;SDS011;69901;43.524;-5.636;2023-09-19T03:02:48;4.93;;;1.20;;
80557;SDS011;69901;43.524;-5.636;2023-09-19T03:05:18;5.22;;;1.38;;
80557;SDS011;69901;43.524;-5.636;2023-09-19T03:07:46;7.35;;;1.38;;
80557;SDS011;69901;43.524;-5.636;2023-09-19T03:10:15;6.15;;;1.00;;
80557;SDS011;69901;43.524;-5.636;2023-09-19T03:12:41;6.68;;;1.58;;
80557;SDS011;69901;43.524;-5.636;2023-09-19T03:15:07;5.00;;;1.17;;
80557;SDS011;69901;43.524;-5.636;2023-09-19T03:17:36;5.25;;;1.20;;
80557;SDS011;69901;43.524;-5.636;2023-09-19T03:20:02;6.10;;;1.67;;
80557;SDS011;69901;43.524;-5.636;2023-09-19T03:22:33;8.23;;;0.90;;
80557;SDS011;69901;43.524;-5.636;2023-09-19T03:24:59;5.03;;;1.65;;
80557;SDS011;69901;43.524;-5.636;2023-09-19T03:27:25;7.38;;;1.58;;
80557;SDS011;69901;43.524;-5.636;2023-09-19T03:29:52;5.87;;;1.27;;
80557;SDS011;69901;43.524;-5.636;2023-09-19T03:32:18;5.00;;;1.10;;
80557;SDS011;69901;43.524;-5.636;2023-09-19T03:34:44;7.53;;;1.23;;
80557;SDS011;69901;43.524;-5.636;2023-09-19T03:37:09;5.57;;;0.93;;
80557;SDS011;69901;43.524;-5.636;2023-09-19T03:39:35;7.00;;;1.38;;
80557;SDS011;69901;43.524;-5.636;2023-09-19T03:42:01;7.50;;;1.50;;
80557;SDS011;69901;43.524;-5.636;2023-09-19T03:44:32;5.78;;;1.15;;
80557;SDS011;69901;43.524;-5.636;2023-09-19T03:46:57;6.88;;;1.60;;
80557;SDS011;69901;43.524;-5.636;2023-09-19T03:49:23;8.07;;;1.27;;
80557;SDS011;69901;43.524;-5.636;2023-09-19T03:51:48;6.53;;;1.40;;
80557;SDS011;69901;43.524;-5.636;2023-09-19T03:54:13;5.07;;;0.97;;
80557;SDS011;69901;43.524;-5.636;2023-09-19T03:56:39;5.68;;;1.30;;
80557;SDS011;69901;43.524;-5.636;2023-09-19T03:59:06;6.93;;;1.48;;
80557;SDS011;69901;43.524;-5.636;2023-09-19T04:01:33;5.67;;;1.40;;
80557;SDS011;69901;43.524;-5.636;2023-09-19T04:03:59;6.65;;;1.38;;
80557;SDS011;69901;43.524;-5.636;2023-09-19T04:06:33;4.07;;;1.23;;
80557;SDS011;69901;43.524;-5.636;2023-09-19T04:09:03;7.60;;;1.43;;
80557;SDS011;69901;43.524;-5.636;2023-09-19T04:11:31;4.57;;;1.00;;
80557;SDS011;69901;43.524;-5.636;2023-09-19T04:13:58;4.93;;;1.08;;
80557;SDS011;69901;43.524;-5.636;2023-09-19T04:16:23;5.77;;;1.07;;
80557;SDS011;69901;43.524;-5.636;2023-09-19T04:18:49;7.90;;;1.20;;
80557;SDS011;69901;43.524;-5.636;2023-09-19T04:21:14;5.00;;;1.30;;
80557;SDS011;69901;43.524;-5.636;2023-09-19T04:23:40;4.27;;;1.10;;
80557;SDS011;69901;43.524;-5.636;2023-09-19T04:26:05;6.85;;;1.42;;
80557;SDS011;69901;43.524;-5.636;2023-09-19T04:28:31;6.57;;;1.27;;
80557;SDS011;69901;43.524;-5.636;2023-09-19T04:30:59;4.85;;;1.08;;
80557;SDS011;69901;43.524;-5.636;2023-09-19T04:33:25;6.75;;;1.30;;
80557;SDS011;69901;43.524;-5.636;2023-09-19T04:35:52;6.17;;;1.47;;
80557;SDS011;69901;43.524;-5.636;2023-09-19T04:38:21;5.97;;;1.45;;
80557;SDS011;69901;43.524;-5.636;2023-09-19T04:40:47;5.22;;;1.48;;
80557;SDS011;69901;43.524;-5.636;2023-09-19T04:43:12;6.87;;;1.10;;
80557;SDS011;69901;43.524;-5.636;2023-09-19T04:45:38;6.03;;;1.40;;
80557;SDS011;69901;43.524;-5.636;2023-09-19T04:48:05;5.85;;;1.20;;
80557;SDS011;69901;43.524;-5.636;2023-09-19T04:50:33;5.25;;;1.48;;
80557;SDS011;69901;43.524;-5.636;2023-09-19T04:52:59;6.97;;;1.70;;
80557;SDS011;69901;43.524;-5.636;2023-09-19T04:55:26;5.65;;;1.48;;
80557;SDS011;69901;43.524;-5.636;2023-09-19T04:57:52;6.85;;;1.40;;
80557;SDS011;69901;43.524;-5.636;2023-09-19T05:00:21;6.68;;;1.15;;
80557;SDS011;69901;43.524;-5.636;2023-09-19T05:02:54;6.73;;;1.27;;
80557;SDS011;69901;43.524;-5.636;2023-09-19T05:05:21;6.68;;;1.42;;
80557;SDS011;69901;43.524;-5.636;2023-09-19T05:07:47;5.90;;;1.63;;
80557;SDS011;69901;43.524;-5.636;2023-09-19T05:10:13;5.37;;;1.10;;
80557;SDS011;69901;43.524;-5.636;2023-09-19T05:12:40;8.47;;;1.43;;
80557;SDS011;69901;43.524;-5.636;2023-09-19T05:15:06;5.70;;;1.33;;
80557;SDS011;69901;43.524;-5.636;2023-09-19T05:17:32;7.55;;;1.45;;
80557;SDS011;69901;43.524;-5.636;2023-09-19T05:19:59;5.25;;;1.20;;
80557;SDS011;69901;43.524;-5.636;2023-09-19T05:22:28;5.68;;;1.55;;
80557;SDS011;69901;43.524;-5.636;2023-09-19T05:24:54;5.77;;;1.40;;
80557;SDS011;69901;43.524;-5.636;2023-09-19T05:27:20;5.53;;;1.38;;
80557;SDS011;69901;43.524;-5.636;2023-09-19T05:29:46;5.73;;;1.60;;
80557;SDS011;69901;43.524;-5.636;2023-09-19T05:32:11;5.70;;;1.08;;
80557;SDS011;69901;43.524;-5.636;2023-09-19T05:34:37;6.53;;;1.33;;
80557;SDS011;69901;43.524;-5.636;2023-09-19T05:37:04;6.18;;;1.55;;
80557;SDS011;69901;43.524;-5.636;2023-09-19T05:39:32;7.65;;;1.27;;
80557;SDS011;69901;43.524;-5.636;2023-09-19T05:41:58;6.15;;;1.90;;
80557;SDS011;69901;43.524;-5.636;2023-09-19T05:44:25;8.10;;;1.83;;
80557;SDS011;69901;43.524;-5.636;2023-09-19T05:46:50;5.38;;;1.35;;
80557;SDS011;69901;43.524;-5.636;2023-09-19T05:49:16;5.47;;;1.55;;
80557;SDS011;69901;43.524;-5.636;2023-09-19T05:51:42;5.20;;;1.40;;
80557;SDS011;69901;43.524;-5.636;2023-09-19T05:54:08;8.00;;;1.50;;
80557;SDS011;69901;43.524;-5.636;2023-09-19T05:56:34;5.60;;;1.40;;
80557;SDS011;69901;43.524;-5.636;2023-09-19T05:58:59;7.45;;;1.58;;
80557;SDS011;69901;43.524;-5.636;2023-09-19T06:01:25;5.67;;;1.53;;
80557;SDS011;69901;43.524;-5.636;2023-09-19T06:03:50;6.23;;;0.97;;
80557;SDS011;69901;43.524;-5.636;2023-09-19T06:06:17;6.35;;;1.58;;
80557;SDS011;69901;43.524;-5.636;2023-09-19T06:08:44;5.18;;;0.98;;
80557;SDS011;69901;43.524;-5.636;2023-09-19T06:11:09;6.83;;;1.80;;
80557;SDS011;69901;43.524;-5.636;2023-09-19T06:13:35;6.33;;;2.40;;
80557;SDS011;69901;43.524;-5.636;2023-09-19T06:16:01;6.60;;;2.38;;
80557;SDS011;69901;43.524;-5.636;2023-09-19T06:18:30;8.93;;;1.87;;
80557;SDS011;69901;43.524;-5.636;2023-09-19T06:20:58;8.38;;;1.95;;
80557;SDS011;69901;43.524;-5.636;2023-09-19T06:23:24;7.75;;;2.22;;
80557;SDS011;69901;43.524;-5.636;2023-09-19T06:25:52;6.47;;;1.90;;
80557;SDS011;69901;43.524;-5.636;2023-09-19T06:28:18;6.60;;;2.10;;
80557;SDS011;69901;43.524;-5.636;2023-09-19T06:30:49;7.47;;;1.87;;
80557;SDS011;69901;43.524;-5.636;2023-09-19T06:33:14;6.70;;;1.90;;
80557;SDS011;69901;43.524;-5.636;2023-09-19T06:35:40;6.47;;;1.95;;
80557;SDS011;69901;43.524;-5.636;2023-09-19T06:38:07;6.78;;;2.20;;
80557;SDS011;69901;43.524;-5.636;2023-09-19T06:40:33;5.43;;;1.53;;
80557;SDS011;69901;43.524;-5.636;2023-09-19T06:42:59;6.65;;;1.75;;
80557;SDS011;69901;43.524;-5.636;2023-09-19T06:45:27;12.45;;;2.42;;
80557;SDS011;69901;43.524;-5.636;2023-09-19T06:47:53;7.53;;;1.90;;
80557;SDS011;69901;43.524;-5.636;2023-09-19T06:50:23;5.72;;;1.60;;
80557;SDS011;69901;43.524;-5.636;2023-09-19T06:52:50;5.03;;;1.50;;
80557;SDS011;69901;43.524;-5.636;2023-09-19T06:55:17;7.05;;;2.15;;
80557;SDS011;69901;43.524;-5.636;2023-09-19T06:57:45;7.37;;;1.70;;
80557;SDS011;69901;43.524;-5.636;2023-09-19T07:00:11;6.35;;;1.58;;
80557;SDS011;69901;43.524;-5.636;2023-09-19T07:02:41;6.70;;;1.50;;
80557;SDS011;69901;43.524;-5.636;2023-09-19T07:05:07;6.43;;;1.77;;
80557;SDS011;69901;43.524;-5.636;2023-09-19T07:07:33;8.33;;;1.87;;
80557;SDS011;69901;43.524;-5.636;2023-09-19T07:10:00;5.78;;;1.75;;
80557;SDS011;69901;43.524;-5.636;2023-09-19T07:12:26;7.43;;;1.75;;
80557;SDS011;69901;43.524;-5.636;2023-09-19T07:14:51;6.30;;;2.27;;
80557;SDS011;69901;43.524;-5.636;2023-09-19T07:17:17;8.40;;;2.20;;
80557;SDS011;69901;43.524;-5.636;2023-09-19T07:19:44;5.45;;;1.75;;
80557;SDS011;69901;43.524;-5.636;2023-09-19T07:22:10;7.47;;;1.83;;
80557;SDS011;69901;43.524;-5.636;2023-09-19T07:24:35;5.87;;;1.93;;
80557;SDS011;69901;43.524;-5.636;2023-09-19T07:27:01;6.53;;;1.90;;
80557;SDS011;69901;43.524;-5.636;2023-09-19T07:29:27;8.00;;;1.77;;
80557;SDS011;69901;43.524;-5.636;2023-09-19T07:31:53;5.50;;;1.90;;
80557;SDS011;69901;43.524;-5.636;2023-09-19T07:34:19;6.53;;;1.43;;
80557;SDS011;69901;43.524;-5.636;2023-09-19T07:36:47;8.07;;;1.45;;
80557;SDS011;69901;43.524;-5.636;2023-09-19T07:39:12;7.35;;;1.73;;
80557;SDS011;69901;43.524;-5.636;2023-09-19T07:41:38;5.53;;;1.53;;
80557;SDS011;69901;43.524;-5.636;2023-09-19T07:44:04;8.32;;;2.05;;
80557;SDS011;69901;43.524;-5.636;2023-09-19T07:46:29;6.13;;;2.20;;
80557;SDS011;69901;43.524;-5.636;2023-09-19T07:48:56;5.88;;;2.10;;
80557;SDS011;69901;43.524;-5.636;2023-09-19T07:51:22;7.68;;;2.30;;
80557;SDS011;69901;43.524;-5.636;2023-09-19T07:53:48;7.03;;;2.50;;
80557;SDS011;69901;43.524;-5.636;2023-09-19T07:56:13;7.37;;;1.60;;
80557;SDS011;69901;43.524;-5.636;2023-09-19T07:58:39;8.30;;;2.27;;
80557;SDS011;69901;43.524;-5.636;2023-09-19T08:01:09;9.48;;;2.35;;
80557;SDS011;69901;43.524;-5.636;2023-09-19T08:03:35;8.43;;;2.53;;
80557;SDS011;69901;43.524;-5.636;2023-09-19T08:06:06;7.60;;;2.30;;
80557;SDS011;69901;43.524;-5.636;2023-09-19T08:08:32;8.93;;;2.07;;
80557;SDS011;69901;43.524;-5.636;2023-09-19T08:11:05;7.65;;;1.88;;
80557;SDS011;69901;43.524;-5.636;2023-09-19T08:13:37;7.82;;;2.22;;
80557;SDS011;69901;43.524;-5.636;2023-09-19T08:16:12;8.43;;;1.73;;
80557;SDS011;69901;43.524;-5.636;2023-09-19T08:18:38;9.73;;;2.83;;
80557;SDS011;69901;43.524;-5.636;2023-09-19T08:21:05;9.27;;;2.60;;
80557;SDS011;69901;43.524;-5.636;2023-09-19T08:23:35;9.02;;;2.72;;
80557;SDS011;69901;43.524;-5.636;2023-09-19T08:26:04;10.25;;;2.85;;
80557;SDS011;69901;43.524;-5.636;2023-09-19T08:28:32;10.90;;;2.95;;
80557;SDS011;69901;43.524;-5.636;2023-09-19T08:31:04;9.30;;;2.53;;
80557;SDS011;69901;43.524;-5.636;2023-09-19T08:33:31;9.10;;;2.97;;
80557;SDS011;69901;43.524;-5.636;2023-09-19T08:36:00;9.93;;;2.65;;
80557;SDS011;69901;43.524;-5.636;2023-09-19T08:38:26;9.82;;;2.80;;
80557;SDS011;69901;43.524;-5.636;2023-09-19T08:40:59;13.13;;;3.90;;
80557;SDS011;69901;43.524;-5.636;2023-09-19T08:43:28;10.90;;;2.88;;
80557;SDS011;69901;43.524;-5.636;2023-09-19T08:46:05;10.73;;;2.87;;
80557;SDS011;69901;43.524;-5.636;2023-09-19T08:48:36;10.93;;;2.80;;
80557;SDS011;69901;43.524;-5.636;2023-09-19T08:51:10;9.98;;;2.35;;
80557;SDS011;69901;43.524;-5.636;2023-09-19T08:53:45;11.63;;;2.38;;
80557;SDS011;69901;43.524;-5.636;2023-09-19T08:56:40;11.40;;;2.50;;
80557;SDS011;69901;43.524;-5.636;2023-09-19T08:59:08;11.43;;;2.97;;
80557;SDS011;69901;43.524;-5.636;2023-09-19T09:01:34;11.60;;;2.72;;
80557;SDS011;69901;43.524;-5.636;2023-09-19T09:04:01;9.70;;;3.65;;
80557;SDS011;69901;43.524;-5.636;2023-09-19T09:06:28;9.32;;;2.60;;
80557;SDS011;69901;43.524;-5.636;2023-09-19T09:08:54;10.07;;;2.42;;
80557;SDS011;69901;43.524;-5.636;2023-09-19T09:11:21;8.07;;;2.60;;
80557;SDS011;69901;43.524;-5.636;2023-09-19T09:13:49;9.27;;;1.98;;
80557;SDS011;69901;43.524;-5.636;2023-09-19T09:16:15;8.00;;;2.08;;
80557;SDS011;69901;43.524;-5.636;2023-09-19T09:18:44;9.73;;;2.40;;
80557;SDS011;69901;43.524;-5.636;2023-09-19T09:21:17;8.30;;;2.40;;
80557;SDS011;69901;43.524;-5.636;2023-09-19T09:23:43;8.45;;;2.40;;
80557;SDS011;69901;43.524;-5.636;2023-09-19T09:26:09;9.27;;;2.50;;
80557;SDS011;69901;43.524;-5.636;2023-09-19T09:28:35;9.70;;;2.72;;
80557;SDS011;69901;43.524;-5.636;2023-09-19T09:31:04;7.10;;;2.50;;
80557;SDS011;69901;43.524;-5.636;2023-09-19T09:33:34;10.20;;;2.23;;
80557;SDS011;69901;43.524;-5.636;2023-09-19T09:36:01;10.20;;;2.90;;
80557;SDS011;69901;43.524;-5.636;2023-09-19T09:38:30;8.82;;;2.42;;
80557;SDS011;69901;43.524;-5.636;2023-09-19T09:41:09;9.73;;;2.85;;
80557;SDS011;69901;43.524;-5.636;2023-09-19T09:43:38;10.03;;;2.57;;
80557;SDS011;69901;43.524;-5.636;2023-09-19T09:46:15;8.27;;;2.15;;
80557;SDS011;69901;43.524;-5.636;2023-09-19T09:51:50;9.15;;;2.53;;
80557;SDS011;69901;43.524;-5.636;2023-09-19T09:54:57;9.63;;;2.90;;
80557;SDS011;69901;43.524;-5.636;2023-09-19T09:57:30;7.03;;;2.60;;
80557;SDS011;69901;43.524;-5.636;2023-09-19T09:59:58;7.18;;;2.42;;
80557;SDS011;69901;43.524;-5.636;2023-09-19T10:02:36;7.20;;;1.92;;
80557;SDS011;69901;43.524;-5.636;2023-09-19T10:07:50;13.83;;;2.53;;
80557;SDS011;69901;43.524;-5.636;2023-09-19T10:10:31;9.32;;;2.13;;
80557;SDS011;69901;43.524;-5.636;2023-09-19T10:13:07;9.65;;;2.85;;
80557;SDS011;69901;43.524;-5.636;2023-09-19T10:15:37;8.13;;;2.55;;
80557;SDS011;69901;43.524;-5.636;2023-09-19T10:18:06;8.40;;;3.03;;
80557;SDS011;69901;43.524;-5.636;2023-09-19T10:20:44;8.50;;;2.47;;
80557;SDS011;69901;43.524;-5.636;2023-09-19T10:23:11;9.18;;;2.45;;
80557;SDS011;69901;43.524;-5.636;2023-09-19T10:25:41;9.57;;;3.40;;
80557;SDS011;69901;43.524;-5.636;2023-09-19T10:28:12;8.07;;;2.45;;
80557;SDS011;69901;43.524;-5.636;2023-09-19T10:30:44;8.55;;;2.80;;
80557;SDS011;69901;43.524;-5.636;2023-09-19T10:33:12;7.37;;;2.07;;
80557;SDS011;69901;43.524;-5.636;2023-09-19T10:35:40;9.40;;;2.63;;
80557;SDS011;69901;43.524;-5.636;2023-09-19T10:38:09;8.40;;;2.78;;
80557;SDS011;69901;43.524;-5.636;2023-09-19T10:40:36;9.73;;;1.98;;
80557;SDS011;69901;43.524;-5.636;2023-09-19T10:43:06;8.23;;;2.35;;
80557;SDS011;69901;43.524;-5.636;2023-09-19T10:45:35;9.40;;;2.60;;
80557;SDS011;69901;43.524;-5.636;2023-09-19T10:48:03;8.25;;;2.63;;
80557;SDS011;69901;43.524;-5.636;2023-09-19T10:50:31;9.13;;;2.75;;
80557;SDS011;69901;43.524;-5.636;2023-09-19T10:53:07;10.17;;;2.37;;
80557;SDS011;69901;43.524;-5.636;2023-09-19T10:55:35;9.15;;;3.20;;
80557;SDS011;69901;43.524;-5.636;2023-09-19T10:58:02;7.75;;;3.05;;
80557;SDS011;69901;43.524;-5.636;2023-09-19T11:00:57;8.65;;;3.42;;
80557;SDS011;69901;43.524;-5.636;2023-09-19T11:03:40;9.63;;;4.00;;
80557;SDS011;69901;43.524;-5.636;2023-09-19T11:11:40;11.38;;;4.20;;
80557;SDS011;69901;43.524;-5.636;2023-09-19T11:28:28;12.07;;;4.60;;
80557;SDS011;69901;43.524;-5.636;2023-09-19T11:30:48;8.80;;;3.67;;
80557;SDS011;69901;43.524;-5.636;2023-09-19T11:46:12;9.60;;;2.37;;
80557;SDS011;69901;43.524;-5.636;2023-09-19T11:48:41;7.43;;;3.00;;
80557;SDS011;69901;43.524;-5.636;2023-09-19T11:51:12;7.07;;;2.50;;
80557;SDS011;69901;43.524;-5.636;2023-09-19T11:53:44;10.63;;;3.28;;
80557;SDS011;69901;43.524;-5.636;2023-09-19T11:56:13;8.98;;;3.25;;
80557;SDS011;69901;43.524;-5.636;2023-09-19T11:58:42;7.22;;;2.85;;
80557;SDS011;69901;43.524;-5.636;2023-09-19T12:01:11;7.25;;;2.85;;
80557;SDS011;69901;43.524;-5.636;2023-09-19T12:03:45;6.87;;;2.20;;
80557;SDS011;69901;43.524;-5.636;2023-09-19T12:06:14;7.18;;;2.17;;
80557;SDS011;69901;43.524;-5.636;2023-09-19T12:08:41;6.80;;;2.53;;
80557;SDS011;69901;43.524;-5.636;2023-09-19T12:11:12;6.60;;;1.75;;
80557;SDS011;69901;43.524;-5.636;2023-09-19T12:13:44;7.28;;;1.80;;
80557;SDS011;69901;43.524;-5.636;2023-09-19T12:16:11;7.73;;;2.07;;
80557;SDS011;69901;43.524;-5.636;2023-09-19T12:18:46;5.13;;;1.67;;
80557;SDS011;69901;43.524;-5.636;2023-09-19T12:21:22;7.45;;;2.50;;
80557;SDS011;69901;43.524;-5.636;2023-09-19T12:26:38;7.80;;;2.20;;
80557;SDS011;69901;43.524;-5.636;2023-09-19T12:29:13;6.97;;;2.10;;
80557;SDS011;69901;43.524;-5.636;2023-09-19T12:34:26;7.47;;;2.10;;
80557;SDS011;69901;43.524;-5.636;2023-09-19T12:37:05;5.80;;;1.33;;
80557;SDS011;69901;43.524;-5.636;2023-09-19T12:39:46;6.38;;;2.22;;
80557;SDS011;69901;43.524;-5.636;2023-09-19T12:42:20;6.73;;;2.00;;
80557;SDS011;69901;43.524;-5.636;2023-09-19T12:44:50;7.47;;;2.13;;
80557;SDS011;69901;43.524;-5.636;2023-09-19T12:47:21;6.00;;;2.38;;
80557;SDS011;69901;43.524;-5.636;2023-09-19T12:50:06;6.80;;;2.55;;
80557;SDS011;69901;43.524;-5.636;2023-09-19T12:55:19;6.87;;;1.50;;
80557;SDS011;69901;43.524;-5.636;2023-09-19T12:58:13;8.52;;;2.20;;
80557;SDS011;69901;43.524;-5.636;2023-09-19T13:00:41;9.25;;;1.98;;
80557;SDS011;69901;43.524;-5.636;2023-09-19T13:03:13;8.00;;;2.50;;
80557;SDS011;69901;43.524;-5.636;2023-09-19T13:05:47;7.25;;;2.20;;
80557;SDS011;69901;43.524;-5.636;2023-09-19T13:08:25;8.85;;;2.67;;
80557;SDS011;69901;43.524;-5.636;2023-09-19T13:16:19;6.83;;;2.30;;
80557;SDS011;69901;43.524;-5.636;2023-09-19T13:21:26;6.25;;;1.67;;
80557;SDS011;69901;43.524;-5.636;2023-09-19T13:24:20;7.43;;;2.10;;
80557;SDS011;69901;43.524;-5.636;2023-09-19T13:26:48;4.97;;;1.70;;
80557;SDS011;69901;43.524;-5.636;2023-09-19T13:29:13;7.93;;;1.83;;
80557;SDS011;69901;43.524;-5.636;2023-09-19T13:31:45;6.13;;;1.70;;
80557;SDS011;69901;43.524;-5.636;2023-09-19T13:34:11;7.25;;;1.80;;
80557;SDS011;69901;43.524;-5.636;2023-09-19T13:36:37;6.53;;;1.35;;
80557;SDS011;69901;43.524;-5.636;2023-09-19T13:39:03;5.57;;;1.77;;
80557;SDS011;69901;43.524;-5.636;2023-09-19T13:41:30;5.07;;;1.50;;
80557;SDS011;69901;43.524;-5.636;2023-09-19T13:43:57;8.50;;;1.90;;
80557;SDS011;69901;43.524;-5.636;2023-09-19T13:46:23;6.53;;;2.00;;
80557;SDS011;69901;43.524;-5.636;2023-09-19T13:48:51;7.90;;;2.40;;
80557;SDS011;69901;43.524;-5.636;2023-09-19T13:51:25;8.25;;;1.73;;
80557;SDS011;69901;43.524;-5.636;2023-09-19T13:53:51;11.25;;;2.67;;
80557;SDS011;69901;43.524;-5.636;2023-09-19T13:56:17;7.53;;;2.40;;
80557;SDS011;69901;43.524;-5.636;2023-09-19T13:58:42;7.60;;;2.37;;
80557;SDS011;69901;43.524;-5.636;2023-09-19T14:01:08;7.18;;;2.33;;
80557;SDS011;69901;43.524;-5.636;2023-09-19T14:03:41;7.20;;;2.07;;
80557;SDS011;69901;43.524;-5.636;2023-09-19T14:06:12;8.43;;;2.53;;
80557;SDS011;69901;43.524;-5.636;2023-09-19T14:08:38;6.63;;;2.10;;
80557;SDS011;69901;43.524;-5.636;2023-09-19T14:11:07;6.93;;;2.28;;
80557;SDS011;69901;43.524;-5.636;2023-09-19T14:13:33;6.17;;;1.80;;
80557;SDS011;69901;43.524;-5.636;2023-09-19T14:16:03;6.32;;;2.25;;
80557;SDS011;69901;43.524;-5.636;2023-09-19T14:18:30;7.28;;;1.63;;
80557;SDS011;69901;43.524;-5.636;2023-09-19T14:20:56;6.90;;;2.37;;
80557;SDS011;69901;43.524;-5.636;2023-09-19T14:23:21;6.60;;;2.00;;
80557;SDS011;69901;43.524;-5.636;2023-09-19T14:25:48;6.28;;;2.10;;
80557;SDS011;69901;43.524;-5.636;2023-09-19T14:28:13;5.60;;;1.90;;
80557;SDS011;69901;43.524;-5.636;2023-09-19T14:30:39;6.47;;;1.97;;
80557;SDS011;69901;43.524;-5.636;2023-09-19T14:33:04;6.95;;;1.80;;
80557;SDS011;69901;43.524;-5.636;2023-09-19T14:35:31;6.82;;;2.05;;
80557;SDS011;69901;43.524;-5.636;2023-09-19T14:37:56;6.80;;;1.90;;
80557;SDS011;69901;43.524;-5.636;2023-09-19T14:40:22;6.37;;;2.33;;
80557;SDS011;69901;43.524;-5.636;2023-09-19T14:42:47;9.07;;;1.97;;
80557;SDS011;69901;43.524;-5.636;2023-09-19T14:45:13;6.57;;;2.23;;
80557;SDS011;69901;43.524;-5.636;2023-09-19T14:47:43;7.78;;;3.10;;
80557;SDS011;69901;43.524;-5.636;2023-09-19T14:50:09;7.38;;;2.17;;
80557;SDS011;69901;43.524;-5.636;2023-09-19T14:52:35;6.13;;;1.73;;
80557;SDS011;69901;43.524;-5.636;2023-09-19T14:55:01;5.50;;;1.88;;
80557;SDS011;69901;43.524;-5.636;2023-09-19T14:57:27;6.82;;;2.30;;
80557;SDS011;69901;43.524;-5.636;2023-09-19T14:59:53;7.30;;;2.47;;
80557;SDS011;69901;43.524;-5.636;2023-09-19T15:02:19;7.32;;;2.17;;
80557;SDS011;69901;43.524;-5.636;2023-09-19T15:04:44;8.73;;;2.27;;
80557;SDS011;69901;43.524;-5.636;2023-09-19T15:07:15;6.68;;;2.13;;
80557;SDS011;69901;43.524;-5.636;2023-09-19T15:09:43;7.18;;;2.22;;
80557;SDS011;69901;43.524;-5.636;2023-09-19T15:12:10;6.38;;;1.73;;
80557;SDS011;69901;43.524;-5.636;2023-09-19T15:14:39;9.85;;;2.90;;
80557;SDS011;69901;43.524;-5.636;2023-09-19T15:17:06;8.30;;;2.43;;
80557;SDS011;69901;43.524;-5.636;2023-09-19T15:19:32;8.48;;;1.88;;
80557;SDS011;69901;43.524;-5.636;2023-09-19T15:21:58;6.57;;;2.20;;
80557;SDS011;69901;43.524;-5.636;2023-09-19T15:24:23;8.60;;;2.70;;
80557;SDS011;69901;43.524;-5.636;2023-09-19T15:26:51;7.00;;;2.23;;
80557;SDS011;69901;43.524;-5.636;2023-09-19T15:29:17;7.95;;;2.80;;
80557;SDS011;69901;43.524;-5.636;2023-09-19T15:31:43;8.13;;;2.87;;
80557;SDS011;69901;43.524;-5.636;2023-09-19T15:34:08;6.43;;;2.30;;
80557;SDS011;69901;43.524;-5.636;2023-09-19T15:36:37;6.65;;;2.25;;
80557;SDS011;69901;43.524;-5.636;2023-09-19T15:39:04;7.68;;;2.45;;
80557;SDS011;69901;43.524;-5.636;2023-09-19T15:41:39;6.93;;;2.43;;
80557;SDS011;69901;43.524;-5.636;2023-09-19T15:44:15;7.63;;;2.67;;
80557;SDS011;69901;43.524;-5.636;2023-09-19T15:46:42;6.93;;;2.38;;
80557;SDS011;69901;43.524;-5.636;2023-09-19T15:49:08;5.63;;;2.40;;
80557;SDS011;69901;43.524;-5.636;2023-09-19T15:51:34;7.20;;;2.80;;
80557;SDS011;69901;43.524;-5.636;2023-09-19T15:54:09;8.13;;;2.15;;